Time;durP1;ratioP1;P1;durP2;ratioP2;P2;SDS_P1;SDS_P2;PMS_P1;PMS_P2;Temp;Humidity;BMP_temperature;BMP_pressure;BME280_temperature;BME280_humidity;BME280_pressure;Samples;Min_cycle;Max_cycle;Signal;HPM_P1;HPM_P2
2022/10/19 00:00:09;;;;;;;11.57;6.00;;;;;;;12.69;48.22;100248.36;1693938;83;21012;-68
2022/10/19 00:02:40;;;;;;;12.45;6.30;;;;;;;12.67;48.34;100240.86;1679106;84;21033;-66
2022/10/19 00:05:09;;;;;;;11.97;5.97;;;;;;;12.64;48.43;100228.08;1694055;83;21075;-66
2022/10/19 00:07:39;;;;;;;11.78;5.78;;;;;;;12.63;48.51;100230.52;1679221;85;21041;-67
2022/10/19 00:10:10;;;;;;;12.58;6.12;;;;;;;12.61;48.57;100232.10;1693784;85;21016;-68
2022/10/19 00:12:39;;;;;;;12.70;5.80;;;;;;;12.60;48.63;100223.55;1678996;85;21021;-67
2022/10/19 00:15:10;;;;;;;14.35;6.28;;;;;;;12.61;48.68;100218.89;1674680;85;21084;-68
2022/10/19 00:17:39;;;;;;;12.35;6.17;;;;;;;12.61;48.77;100213.39;1679431;84;21009;-68
2022/10/19 00:20:10;;;;;;;11.57;5.85;;;;;;;12.60;48.87;100214.45;1694253;83;21519;-68
2022/10/19 00:22:39;;;;;;;11.18;6.30;;;;;;;12.58;48.93;100203.67;1678954;85;21448;-68
2022/10/19 00:25:09;;;;;;;12.25;6.45;;;;;;;12.57;48.98;100202.52;1682488;85;21041;-69
2022/10/19 00:27:39;;;;;;;12.05;5.97;;;;;;;12.55;49.13;100195.86;1682494;85;21057;-67
2022/10/19 00:30:09;;;;;;;13.53;5.92;;;;;;;12.53;49.27;100192.48;1682371;85;21033;-67
2022/10/19 00:32:38;;;;;;;14.35;6.22;;;;;;;12.53;49.35;100184.77;1682392;85;21562;-69
2022/10/19 00:35:08;;;;;;;13.50;6.00;;;;;;;12.51;49.59;100176.73;1682524;85;21013;-69
2022/10/19 00:37:37;;;;;;;13.83;5.90;;;;;;;12.47;49.71;100174.64;1682540;85;21033;-69
2022/10/19 00:40:08;;;;;;;10.55;5.62;;;;;;;12.44;49.75;100170.95;1682630;85;21060;-67
2022/10/19 00:42:37;;;;;;;12.85;6.03;;;;;;;12.42;49.85;100163.45;1682465;85;21009;-67
2022/10/19 00:45:11;;;;;;;13.05;5.58;;;;;;;12.42;49.86;100160.70;1682612;85;21025;-67
2022/10/19 00:47:42;;;;;;;17.12;6.17;;;;;;;12.42;49.87;100158.80;1682464;84;21036;-67
2022/10/19 00:50:10;;;;;;;17.05;6.42;;;;;;;12.45;49.91;100160.27;1682467;85;21044;-68
2022/10/19 00:52:39;;;;;;;10.70;5.53;;;;;;;12.47;49.91;100147.16;1659099;85;21070;-68
2022/10/19 00:55:08;;;;;;;13.78;5.85;;;;;;;12.47;50.01;100143.04;1682896;85;21160;-68
2022/10/19 00:57:37;;;;;;;12.47;5.40;;;;;;;12.49;50.16;100139.55;1682579;85;21037;-67
2022/10/19 01:00:07;;;;;;;17.98;5.80;;;;;;;12.50;50.11;100129.70;1659503;85;21088;-67
2022/10/19 01:02:36;;;;;;;16.62;6.17;;;;;;;12.52;50.10;100130.34;1682535;85;21044;-67
2022/10/19 01:05:06;;;;;;;11.48;5.10;;;;;;;12.55;50.12;100120.28;1682603;85;21048;-69
2022/10/19 01:07:35;;;;;;;13.85;5.90;;;;;;;12.59;50.15;100123.44;1682495;85;21068;-66
2022/10/19 01:10:06;;;;;;;12.73;5.72;;;;;;;12.62;50.17;100117.50;1682501;85;21005;-67
2022/10/19 01:12:56;;;;;;;13.78;6.12;;;;;;;12.62;50.19;100112.85;1682396;85;21024;-68
2022/10/19 01:15:34;;;;;;;12.55;6.15;;;;;;;12.67;50.22;100114.41;1682430;85;21516;-68
2022/10/19 01:18:34;;;;;;;13.03;6.15;;;;;;;12.71;50.16;100109.32;1636592;85;21425;-68
2022/10/19 01:21:25;;;;;;;13.28;6.28;;;;;;;12.74;50.24;100106.13;1664362;85;21461;-69
2022/10/19 01:24:27;;;;;;;15.58;5.95;;;;;;;12.76;50.27;100099.88;1680950;85;21103;-67
2022/10/19 01:27:33;;;;;;;11.33;5.40;;;;;;;12.78;50.40;100098.30;1693988;85;21009;-68
2022/10/19 01:30:14;;;;;;;11.43;5.87;;;;;;;12.78;50.48;100097.77;1671256;85;21172;-68
2022/10/19 01:32:54;;;;;;;14.63;6.22;;;;;;;12.79;50.70;100099.45;1693515;84;21051;-67
2022/10/19 01:35:51;;;;;;;15.40;6.17;;;;;;;12.79;50.82;100100.82;1679235;85;21020;-67
2022/10/19 01:38:37;;;;;;;13.20;6.03;;;;;;;12.78;51.03;100089.52;1693924;85;21020;-69
2022/10/19 01:41:33;;;;;;;13.50;5.90;;;;;;;12.78;51.16;100088.14;1678807;85;21983;-68
2022/10/19 01:44:18;;;;;;;14.85;6.45;;;;;;;12.77;51.24;100093.33;1693663;85;21518;-67
2022/10/19 01:47:00;;;;;;;16.97;6.28;;;;;;;12.75;51.36;100087.20;1693372;83;21008;-67
2022/10/19 01:49:42;;;;;;;14.75;6.35;;;;;;;12.75;51.46;100086.36;1694061;83;21020;-67
2022/10/19 01:52:13;;;;;;;15.28;6.90;;;;;;;12.73;51.61;100080.23;1678998;85;21016;-69
2022/10/19 01:54:48;;;;;;;12.85;6.15;;;;;;;12.69;51.79;100080.67;1693775;85;21482;-66
2022/10/19 01:57:29;;;;;;;14.55;6.60;;;;;;;12.68;51.91;100069.90;1678923;85;21001;-67
2022/10/19 02:00:06;;;;;;;13.53;6.35;;;;;;;12.68;52.04;100067.16;1693894;85;21429;-66
2022/10/19 02:02:36;;;;;;;14.60;6.75;;;;;;;12.63;52.18;100068.34;1673675;84;21032;-69
2022/10/19 02:05:07;;;;;;;14.53;6.90;;;;;;;12.60;52.34;100060.00;1678901;85;21052;-69
2022/10/19 02:07:37;;;;;;;15.85;6.40;;;;;;;12.58;52.52;100066.78;1693914;83;20989;-68
2022/10/19 02:10:07;;;;;;;12.07;6.33;;;;;;;12.56;52.67;100063.41;1679286;84;21028;-68
2022/10/19 02:12:37;;;;;;;13.18;6.40;;;;;;;12.55;52.84;100058.97;1693827;85;21522;-67
2022/10/19 02:15:10;;;;;;;13.25;6.60;;;;;;;12.53;53.00;100060.57;1638881;85;21903;-67
2022/10/19 02:17:43;;;;;;;14.98;6.62;;;;;;;12.52;53.16;100060.79;1693761;83;21095;-67
2022/10/19 02:20:14;;;;;;;15.23;6.30;;;;;;;12.49;53.37;100056.57;1679147;85;21029;-68
2022/10/19 02:22:43;;;;;;;13.70;6.28;;;;;;;12.47;53.56;100055.10;1693878;83;20981;-67
2022/10/19 02:25:11;;;;;;;14.98;6.92;;;;;;;12.45;53.72;100051.73;1681496;85;21036;-68
2022/10/19 02:27:42;;;;;;;16.55;7.05;;;;;;;12.43;53.92;100052.48;1682502;85;21024;-67
2022/10/19 02:30:13;;;;;;;12.82;6.35;;;;;;;12.40;54.18;100047.42;1682441;85;21025;-67
2022/10/19 02:32:43;;;;;;;15.25;6.70;;;;;;;12.34;54.46;100041.70;1682388;85;21048;-68
2022/10/19 02:35:12;;;;;;;17.92;6.92;;;;;;;12.32;54.60;100054.81;1682159;85;21068;-68
2022/10/19 02:37:42;;;;;;;15.63;7.42;;;;;;;12.29;54.77;100055.78;1659853;85;21433;-68
2022/10/19 02:40:11;;;;;;;14.38;6.72;;;;;;;12.25;54.97;100062.77;1682453;85;21004;-66
2022/10/19 02:42:57;;;;;;;16.62;7.30;;;;;;;12.21;55.16;100058.24;1682372;85;20986;-68
2022/10/19 02:45:32;;;;;;;14.13;6.60;;;;;;;12.20;55.28;100057.93;1682673;85;21056;-69
2022/10/19 02:48:08;;;;;;;15.65;6.83;;;;;;;12.19;55.45;100061.73;1682395;85;21028;-67
2022/10/19 02:50:37;;;;;;;12.95;6.80;;;;;;;12.18;55.63;100059.20;1682335;85;21032;-69
2022/10/19 02:53:06;;;;;;;15.23;6.72;;;;;;;12.15;55.80;100052.24;1682568;85;21049;-67
2022/10/19 02:55:36;;;;;;;13.45;7.58;;;;;;;12.14;56.38;100053.83;1682325;84;21029;-68
2022/10/19 02:58:07;;;;;;;15.53;7.40;;;;;;;12.10;56.45;100049.30;1682591;85;21052;-68
2022/10/19 03:00:37;;;;;;;16.50;7.25;;;;;;;12.10;56.52;100047.93;1682743;85;21084;-68
2022/10/19 03:03:06;;;;;;;18.27;7.37;;;;;;;12.08;56.64;100052.80;1682745;85;20982;-68
2022/10/19 03:05:40;;;;;;;17.23;7.00;;;;;;;12.07;56.83;100056.59;1682880;85;20989;-68
2022/10/19 03:08:09;;;;;;;16.87;6.85;;;;;;;12.06;57.06;100049.42;1682764;85;21016;-67
2022/10/19 03:10:39;;;;;;;15.58;7.28;;;;;;;12.00;57.53;100034.66;1682679;85;21119;-68
2022/10/19 03:13:07;;;;;;;18.17;7.37;;;;;;;11.99;57.78;100029.38;1682534;85;21058;-68
2022/10/19 03:15:36;;;;;;;16.15;7.15;;;;;;;11.99;57.93;100023.89;1682538;85;21072;-67
2022/10/19 03:18:06;;;;;;;16.10;7.05;;;;;;;12.00;58.18;100028.31;1682725;85;21074;-69
2022/10/19 03:20:35;;;;;;;14.05;7.45;;;;;;;11.99;58.28;100032.12;1682497;85;21493;-68
2022/10/19 03:23:05;;;;;;;16.60;7.70;;;;;;;11.99;58.35;100021.14;1682818;85;21068;-67
2022/10/19 03:25:35;;;;;;;15.43;7.87;;;;;;;12.00;58.53;100022.83;1679901;84;21025;-68
2022/10/19 03:28:04;;;;;;;14.30;7.87;;;;;;;12.00;58.73;100037.41;1694112;85;21012;-69
2022/10/19 03:30:36;;;;;;;16.35;7.83;;;;;;;12.01;58.91;100027.26;1679093;85;21013;-68
2022/10/19 03:33:05;;;;;;;16.62;8.10;;;;;;;12.01;59.12;100030.00;1694000;84;21055;-68
2022/10/19 03:35:35;;;;;;;15.75;7.45;;;;;;;12.02;59.33;100030.31;1679384;85;20977;-68
2022/10/19 03:38:04;;;;;;;16.80;8.25;;;;;;;12.01;59.50;100022.61;1693842;85;21464;-69
2022/10/19 03:40:33;;;;;;;18.35;8.13;;;;;;;12.02;59.84;100022.08;1679221;85;20999;-68
2022/10/19 03:43:02;;;;;;;15.50;7.95;;;;;;;12.04;60.13;100019.96;1693966;85;21004;-67
2022/10/19 03:45:31;;;;;;;16.35;8.28;;;;;;;12.04;60.28;100011.73;1679234;85;21032;-69
2022/10/19 03:48:01;;;;;;;18.60;8.40;;;;;;;12.05;60.38;100005.17;1694001;85;21008;-68
2022/10/19 03:50:30;;;;;;;17.90;8.20;;;;;;;12.06;60.51;99996.72;1679083;85;21057;-67
2022/10/19 03:53:00;;;;;;;16.27;8.48;;;;;;;12.09;60.64;99992.69;1693806;83;21079;-68
2022/10/19 03:55:30;;;;;;;14.45;7.97;;;;;;;12.11;60.86;100000.72;1679200;84;21017;-69
2022/10/19 03:57:59;;;;;;;16.97;7.83;;;;;;;12.12;61.00;100006.52;1693706;84;21020;-68
2022/10/19 04:00:28;;;;;;;16.80;7.53;;;;;;;12.10;61.16;100014.97;1679216;85;21504;-68
2022/10/19 04:02:56;;;;;;;17.37;7.85;;;;;;;12.10;61.30;99999.88;1693904;84;21071;-68
2022/10/19 04:05:25;;;;;;;17.55;8.05;;;;;;;12.13;61.43;100013.70;1679516;85;21005;-67
2022/10/19 04:07:54;;;;;;;14.30;7.70;;;;;;;12.15;61.64;100004.71;1693902;85;21020;-67
2022/10/19 04:10:24;;;;;;;16.55;8.53;;;;;;;12.15;61.76;100012.42;1679258;85;21056;-68
2022/10/19 04:12:53;;;;;;;18.73;8.63;;;;;;;12.15;61.97;100022.03;1693855;84;21052;-68
2022/10/19 04:15:22;;;;;;;18.15;8.33;;;;;;;12.14;62.21;100027.22;1679038;85;21005;-68
2022/10/19 04:17:51;;;;;;;21.33;9.13;;;;;;;12.14;62.36;100031.33;1694010;83;21051;-67
2022/10/19 04:20:20;;;;;;;15.83;7.85;;;;;;;12.13;62.42;100026.05;1679154;85;21028;-67
2022/10/19 04:22:50;;;;;;;18.90;9.13;;;;;;;12.13;62.53;100027.42;1693569;84;21052;-68
2022/10/19 04:25:19;;;;;;;17.82;8.35;;;;;;;12.13;62.70;100018.66;1644227;86;21219;-67
2022/10/19 04:27:49;;;;;;;17.10;9.15;;;;;;;12.14;62.84;100027.74;1682602;85;21139;-68
2022/10/19 04:30:19;;;;;;;17.62;8.50;;;;;;;12.13;63.04;100028.27;1682653;85;21171;-68
2022/10/19 04:32:48;;;;;;;18.52;8.60;;;;;;;12.12;63.34;100023.84;1682472;85;21758;-68
2022/10/19 04:35:19;;;;;;;17.60;8.33;;;;;;;12.12;63.59;100027.96;1682255;85;20981;-67
2022/10/19 04:37:48;;;;;;;19.70;8.23;;;;;;;12.12;63.85;100016.13;1682310;85;21060;-68
2022/10/19 04:40:17;;;;;;;17.62;9.10;;;;;;;12.14;64.00;100018.97;1682303;85;21008;-68
2022/10/19 04:42:47;;;;;;;20.70;9.60;;;;;;;12.15;64.25;100013.80;1682385;85;21522;-68
2022/10/19 04:45:16;;;;;;;21.37;9.40;;;;;;;12.14;64.47;100009.36;1682538;85;21056;-68
2022/10/19 04:47:44;;;;;;;22.55;9.10;;;;;;;12.17;64.63;100026.78;1682442;85;21063;-67
2022/10/19 04:50:14;;;;;;;20.80;9.85;;;;;;;12.19;64.75;100019.16;1682339;85;21045;-69
2022/10/19 04:52:44;;;;;;;26.07;11.60;;;;;;;12.19;64.93;99997.19;1682378;85;21009;-68
2022/10/19 04:55:13;;;;;;;16.52;9.05;;;;;;;12.20;65.04;100020.84;1682627;85;21028;-68
2022/10/19 04:57:43;;;;;;;20.40;9.68;;;;;;;12.22;65.27;100011.02;1682493;85;21433;-69
2022/10/19 05:00:14;;;;;;;23.07;9.28;;;;;;;12.21;65.60;100012.92;1682219;85;21510;-70
2022/10/19 05:02:45;;;;;;;19.73;9.38;;;;;;;12.20;66.17;100009.02;1682798;85;21469;-69
2022/10/19 05:05:15;;;;;;;20.92;9.55;;;;;;;12.15;66.99;100013.80;1682660;85;21152;-68
2022/10/19 05:07:44;;;;;;;18.90;9.75;;;;;;;12.14;67.46;100016.23;1682538;85;21077;-69
2022/10/19 05:10:13;;;;;;;21.27;9.38;;;;;;;12.15;68.08;100026.68;1682558;85;21060;-70
2022/10/19 05:12:43;;;;;;;21.33;10.32;;;;;;;12.16;68.43;100034.70;1682347;85;21514;-70
2022/10/19 05:15:13;;;;;;;20.37;9.55;;;;;;;12.15;68.80;100045.38;1682288;85;21459;-69
2022/10/19 05:17:42;;;;;;;20.43;9.28;;;;;;;12.14;69.22;100057.42;1682474;85;21090;-68
2022/10/19 05:20:11;;;;;;;17.87;9.10;;;;;;;12.12;69.75;100058.70;1682499;85;21048;-69
2022/10/19 05:22:40;;;;;;;17.55;9.53;;;;;;;12.11;70.31;100063.34;1682542;85;21036;-68
2022/10/19 05:25:11;;;;;;;20.50;11.75;;;;;;;12.10;70.83;100071.27;1682386;85;21044;-68
2022/10/19 05:27:41;;;;;;;21.10;10.40;;;;;;;12.11;71.28;100078.45;1682591;85;21017;-69
2022/10/19 05:30:13;;;;;;;22.65;10.63;;;;;;;12.14;71.71;100067.56;1682464;85;21048;-69
2022/10/19 05:32:43;;;;;;;19.60;10.78;;;;;;;12.13;72.09;100050.24;1627029;88;21106;-69
2022/10/19 05:35:12;;;;;;;21.20;9.95;;;;;;;12.13;72.67;100054.36;1594282;89;21099;-70
2022/10/19 05:37:44;;;;;;;20.25;10.03;;;;;;;12.14;72.99;100054.67;1627136;87;21047;-70
2022/10/19 05:40:15;;;;;;;19.20;10.05;;;;;;;12.15;73.34;100050.03;1594031;90;21123;-69
2022/10/19 05:42:45;;;;;;;20.70;10.88;;;;;;;12.19;73.55;100053.50;1568236;90;21097;-68
2022/10/19 05:45:15;;;;;;;22.42;9.33;;;;;;;12.22;73.73;100066.80;1594042;90;21918;-69
2022/10/19 05:47:46;;;;;;;15.38;8.83;;;;;;;12.24;74.03;100085.28;1627257;87;21149;-67
2022/10/19 05:50:15;;;;;;;15.08;8.50;;;;;;;12.25;74.33;100096.58;1640518;85;21012;-69
2022/10/19 05:52:44;;;;;;;16.20;8.40;;;;;;;12.28;74.53;100100.27;1684957;85;21061;-69
2022/10/19 05:55:14;;;;;;;17.92;8.33;;;;;;;12.30;74.67;100098.67;1684864;85;21478;-68
2022/10/19 05:57:43;;;;;;;15.78;7.92;;;;;;;12.32;74.80;100093.81;1684980;85;21084;-68
2022/10/19 06:00:13;;;;;;;17.70;7.75;;;;;;;12.30;74.96;100080.30;1685088;85;21008;-69
2022/10/19 06:02:44;;;;;;;16.67;7.97;;;;;;;12.29;75.14;100077.23;1685095;85;21009;-69
2022/10/19 06:05:14;;;;;;;15.90;7.47;;;;;;;12.32;75.17;100090.53;1684822;85;21052;-69
2022/10/19 06:07:45;;;;;;;17.55;8.63;;;;;;;12.33;75.17;100097.72;1685033;85;21405;-70
2022/10/19 06:10:16;;;;;;;16.35;8.05;;;;;;;12.37;75.27;100100.38;1685030;85;21033;-71
2022/10/19 06:12:45;;;;;;;16.35;7.75;;;;;;;12.38;75.26;100106.19;1684861;85;21044;-70
2022/10/19 06:15:14;;;;;;;12.53;7.37;;;;;;;12.38;75.32;100108.93;1684835;85;20977;-67
2022/10/19 06:17:43;;;;;;;13.55;7.30;;;;;;;12.40;75.34;100102.38;1684737;85;21013;-69
2022/10/19 06:20:12;;;;;;;16.35;7.22;;;;;;;12.41;75.46;100105.44;1684912;85;21043;-69
2022/10/19 06:22:43;;;;;;;14.38;6.60;;;;;;;12.43;75.51;100098.66;1684789;85;21452;-72
2022/10/19 06:25:12;;;;;;;13.18;6.42;;;;;;;12.47;75.45;100103.19;1686389;83;21158;-69
2022/10/19 06:27:48;;;;;;;9.13;5.15;;;;;;;12.47;75.56;100110.06;1678421;85;21046;-69
2022/10/19 06:30:22;;;;;;;11.45;4.85;;;;;;;12.45;75.37;100114.93;1693768;83;21075;-69
2022/10/19 06:32:51;;;;;;;11.53;4.90;;;;;;;12.46;75.21;100117.99;1679139;85;21033;-69
2022/10/19 06:35:20;;;;;;;10.50;4.47;;;;;;;12.49;75.02;100113.44;1693801;85;21020;-71
2022/10/19 06:37:49;;;;;;;9.78;4.22;;;;;;;12.52;74.72;100120.72;1679173;85;21010;-68
2022/10/19 06:40:18;;;;;;;10.90;4.05;;;;;;;12.51;74.36;100121.77;1694018;85;21044;-69
2022/10/19 06:42:47;;;;;;;9.33;4.62;;;;;;;12.53;74.25;100131.17;1678990;85;21056;-70
2022/10/19 06:45:17;;;;;;;8.53;4.10;;;;;;;12.55;74.15;100135.40;1694130;85;21048;-70
2022/10/19 06:47:47;;;;;;;7.83;3.67;;;;;;;12.56;74.01;100135.70;1679115;85;21468;-70
2022/10/19 06:50:16;;;;;;;6.30;2.70;;;;;;;12.58;73.78;100136.86;1693837;83;21490;-68
2022/10/19 06:52:45;;;;;;;4.60;2.90;;;;;;;12.57;73.35;100141.52;1679210;85;21037;-70
2022/10/19 06:55:16;;;;;;;6.42;2.20;;;;;;;12.56;73.01;100137.08;1693806;83;21019;-69
2022/10/19 06:57:45;;;;;;;8.68;2.40;;;;;;;12.57;72.77;100143.42;1679130;85;20985;-69
2022/10/19 07:00:14;;;;;;;7.42;2.45;;;;;;;12.56;72.45;100143.11;1693822;83;21016;-69
2022/10/19 07:02:43;;;;;;;8.98;2.85;;;;;;;12.57;72.27;100147.55;1678959;85;21021;-69
2022/10/19 07:05:15;;;;;;;8.33;2.60;;;;;;;12.56;72.14;100148.08;1693975;83;21417;-69
2022/10/19 07:07:45;;;;;;;8.13;2.60;;;;;;;12.56;72.04;100152.73;1679051;85;21037;-69
2022/10/19 07:10:15;;;;;;;8.25;3.50;;;;;;;12.55;71.85;100153.79;1693996;83;21404;-68
2022/10/19 07:12:46;;;;;;;7.15;2.30;;;;;;;12.54;71.88;100159.81;1644390;87;21210;-68
2022/10/19 07:15:19;;;;;;;4.03;1.85;;;;;;;12.57;71.75;100155.80;1623377;87;21097;-69
2022/10/19 07:17:48;;;;;;;5.25;2.00;;;;;;;12.60;71.53;100164.98;1644424;87;21100;-69
2022/10/19 07:20:19;;;;;;;6.42;3.25;;;;;;;12.60;71.46;100163.60;1644272;87;21041;-69
2022/10/19 07:22:49;;;;;;;4.67;2.55;;;;;;;12.63;71.49;100159.05;1644356;87;21330;-69
2022/10/19 07:25:18;;;;;;;4.78;2.60;;;;;;;12.65;71.39;100159.14;1643681;87;21136;-70
2022/10/19 07:27:48;;;;;;;6.92;3.05;;;;;;;12.68;71.32;100159.23;1659228;86;21060;-69
2022/10/19 07:30:17;;;;;;;6.30;2.50;;;;;;;12.71;71.23;100153.30;1668322;84;21067;-69
2022/10/19 07:32:46;;;;;;;5.08;2.37;;;;;;;12.74;71.09;100156.99;1698978;84;21020;-68
2022/10/19 07:35:18;;;;;;;7.22;2.47;;;;;;;12.80;71.07;100148.41;1699354;84;21059;-70
2022/10/19 07:37:47;;;;;;;4.72;2.30;;;;;;;12.86;71.06;100141.50;1699032;83;21034;-69
2022/10/19 07:40:17;;;;;;;4.42;2.65;;;;;;;12.93;71.01;100144.22;1682177;85;21052;-70
2022/10/19 07:42:46;;;;;;;9.00;2.70;;;;;;;13.00;70.75;100139.02;1624602;88;21068;-69
2022/10/19 07:45:15;;;;;;;6.22;2.87;;;;;;;13.10;70.51;100148.70;1637641;86;21084;-69
2022/10/19 07:47:44;;;;;;;5.03;2.17;;;;;;;13.18;70.25;100150.69;1613711;88;21628;-71
2022/10/19 07:50:15;;;;;;;8.15;2.85;;;;;;;13.27;70.01;100147.15;1607909;88;21090;-71
2022/10/19 07:52:46;;;;;;;4.78;3.10;;;;;;;13.35;69.77;100135.03;1629092;88;21118;-71
2022/10/19 07:55:15;;;;;;;4.62;2.55;;;;;;;13.42;69.61;100142.70;1609024;88;21099;-69
2022/10/19 07:57:48;;;;;;;6.95;2.70;;;;;;;13.45;69.38;100131.25;1580048;89;21169;-68
2022/10/19 08:00:18;;;;;;;4.35;1.90;;;;;;;13.46;69.16;100132.41;1611254;89;21103;-70
2022/10/19 08:02:48;;;;;;;3.52;1.98;;;;;;;13.45;68.85;100133.47;1611323;89;21145;-68
2022/10/19 08:05:20;;;;;;;5.78;2.22;;;;;;;13.43;68.55;100130.63;1577163;89;21519;-70
2022/10/19 08:07:50;;;;;;;5.15;2.05;;;;;;;13.38;68.53;100127.17;1610618;89;21034;-69
2022/10/19 08:10:19;;;;;;;4.53;2.10;;;;;;;13.38;68.59;100127.17;1593710;88;21023;-70
2022/10/19 08:12:48;;;;;;;3.72;2.30;;;;;;;13.39;68.55;100124.73;1655584;87;21020;-67
2022/10/19 08:15:17;;;;;;;3.20;2.10;;;;;;;13.39;68.71;100129.39;1636846;88;21035;-69
2022/10/19 08:17:47;;;;;;;6.10;2.33;;;;;;;13.37;68.64;100122.73;1655454;87;21503;-69
2022/10/19 08:20:17;;;;;;;7.83;2.12;;;;;;;13.33;68.59;100114.62;1637615;86;21098;-69
2022/10/19 08:22:46;;;;;;;6.58;1.90;;;;;;;13.28;68.62;100125.45;1635594;88;21071;-69
2022/10/19 08:25:15;;;;;;;2.70;1.57;;;;;;;13.24;68.60;100121.45;1654327;86;21106;-70
2022/10/19 08:27:45;;;;;;;8.75;5.05;;;;;;;13.21;68.56;100131.53;1625835;88;21092;-69
2022/10/19 08:30:13;;;;;;;4.28;1.95;;;;;;;13.19;68.52;100117.15;1633294;88;21080;-70
2022/10/19 08:32:43;;;;;;;4.65;2.27;;;;;;;13.20;68.47;100117.46;1665727;86;21050;-69
2022/10/19 08:35:11;;;;;;;7.28;2.12;;;;;;;13.23;68.56;100123.36;1632984;86;21122;-69
2022/10/19 08:37:40;;;;;;;5.33;2.27;;;;;;;13.26;68.56;100119.33;1665708;86;21043;-71
2022/10/19 08:40:24;;;;;;;3.52;2.10;;;;;;;13.28;68.48;100118.56;1633049;88;21471;-70
2022/10/19 08:43:09;;;;;;;7.70;2.33;;;;;;;13.31;68.45;100116.75;1665601;86;21022;-67
2022/10/19 08:45:45;;;;;;;4.20;1.90;;;;;;;13.35;68.35;100116.61;1651454;86;21076;-69
2022/10/19 08:48:24;;;;;;;4.83;1.57;;;;;;;13.42;68.30;100119.31;1576194;89;21547;-70
2022/10/19 08:50:54;;;;;;;3.98;1.85;;;;;;;13.43;68.13;100127.34;1607261;89;21118;-69
2022/10/19 08:53:46;;;;;;;6.37;1.75;;;;;;;13.45;67.99;100128.50;1609311;88;21083;-69
2022/10/19 08:56:32;;;;;;;12.50;5.28;;;;;;;13.42;68.02;100128.41;1665389;86;21048;-69
2022/10/19 08:59:36;;;;;;;13.28;3.00;;;;;;;13.42;67.59;100134.45;1662781;86;21076;-70
2022/10/19 09:02:32;;;;;;;13.38;5.70;;;;;;;13.43;67.14;100144.39;1665043;86;21016;-70
2022/10/19 09:05:06;;;;;;;3.75;1.95;;;;;;;13.43;66.37;100141.11;1665319;86;21064;-70
2022/10/19 09:07:43;;;;;;;4.65;1.92;;;;;;;13.41;66.16;100138.27;1665415;86;21052;-69
2022/10/19 09:10:19;;;;;;;2.92;1.55;;;;;;;13.38;66.45;100145.06;1665271;84;21087;-70
2022/10/19 09:13:28;;;;;;;4.05;1.40;;;;;;;13.37;66.38;100138.41;1665278;85;21028;-69
2022/10/19 09:16:02;;;;;;;5.55;2.05;;;;;;;13.35;66.24;100135.87;1662574;86;21049;-68
2022/10/19 09:18:35;;;;;;;4.15;1.35;;;;;;;13.35;66.56;100129.53;1626717;86;21032;-69
2022/10/19 09:21:19;;;;;;;3.25;1.77;;;;;;;13.38;66.60;100118.92;1664547;85;21452;-69
2022/10/19 09:24:28;;;;;;;3.90;1.50;;;;;;;13.39;66.44;100123.36;1616600;89;21543;-69
2022/10/19 09:27:00;;;;;;;5.87;1.90;;;;;;;13.40;66.47;100125.04;1621442;87;21656;-68
2022/10/19 09:29:37;;;;;;;4.85;1.60;;;;;;;13.46;66.32;100118.64;1605249;88;21104;-69
2022/10/19 09:32:11;;;;;;;3.10;1.52;;;;;;;13.50;66.19;100119.88;1626138;88;21072;-70
2022/10/19 09:34:52;;;;;;;4.78;1.77;;;;;;;13.52;65.97;100116.38;1626163;88;21496;-72
2022/10/19 09:37:22;;;;;;;8.83;1.80;;;;;;;13.54;65.84;100120.28;1626140;88;21092;-70
2022/10/19 09:39:54;;;;;;;3.22;1.57;;;;;;;13.58;65.91;100118.77;1625985;88;21073;-70
2022/10/19 09:42:31;;;;;;;4.53;1.85;;;;;;;13.63;65.94;100111.52;1644114;87;21108;-72
2022/10/19 09:45:03;;;;;;;4.42;1.95;;;;;;;13.69;65.77;100104.83;1647174;87;21062;-72
2022/10/19 09:47:39;;;;;;;6.80;2.10;;;;;;;13.73;65.47;100104.69;1611889;87;21081;-71
2022/10/19 09:50:19;;;;;;;4.17;1.82;;;;;;;13.71;65.41;100101.32;1640826;87;21114;-69
2022/10/19 09:52:56;;;;;;;4.05;1.72;;;;;;;13.68;65.39;100100.39;1655159;87;21070;-70
2022/10/19 09:55:44;;;;;;;4.05;2.25;;;;;;;13.62;65.46;100097.44;1665022;85;21125;-69
2022/10/19 09:58:17;;;;;;;6.78;2.27;;;;;;;13.57;65.63;100104.69;1640872;87;21101;-69
2022/10/19 10:00:53;;;;;;;7.00;2.27;;;;;;;13.55;65.85;100098.03;1640968;87;21083;-70
2022/10/19 10:03:25;;;;;;;7.03;2.17;;;;;;;13.57;66.05;100095.90;1640719;87;21067;-70
2022/10/19 10:06:05;;;;;;;5.15;1.80;;;;;;;13.61;66.04;100106.77;1640781;87;21237;-72
2022/10/19 10:08:47;;;;;;;5.12;2.30;;;;;;;13.68;66.10;100105.90;1640717;87;21098;-72
2022/10/19 10:11:37;;;;;;;7.53;2.00;;;;;;;13.71;65.96;100099.94;1640932;87;21319;-73
2022/10/19 10:14:30;;;;;;;4.70;2.15;;;;;;;13.74;65.91;100093.98;1626878;87;21098;-71
2022/10/19 10:17:09;;;;;;;4.85;2.00;;;;;;;13.73;65.73;100090.92;1640740;87;21050;-71
2022/10/19 10:19:59;;;;;;;5.60;2.00;;;;;;;13.75;65.58;100084.66;1640993;87;21070;-73
2022/10/19 10:22:35;;;;;;;5.87;2.00;;;;;;;13.76;65.27;100082.21;1640794;87;21090;-72
2022/10/19 10:25:16;;;;;;;7.33;2.15;;;;;;;13.76;65.01;100083.05;1640818;87;21047;-72
2022/10/19 10:28:19;;;;;;;7.03;2.20;;;;;;;13.77;64.87;100081.98;1644533;86;21053;-71
2022/10/19 10:31:06;;;;;;;4.67;1.85;;;;;;;13.77;64.70;100076.48;1639371;87;21122;-71
2022/10/19 10:33:36;;;;;;;3.98;1.82;;;;;;;13.79;64.57;100073.50;1651923;86;21496;-71
2022/10/19 10:36:08;;;;;;;6.45;2.37;;;;;;;13.81;64.64;100079.08;1689444;85;21119;-70
2022/10/19 10:41:37;;;;;;;2.55;1.60;;;;;;;13.92;64.61;100067.32;1689370;85;21122;-68
2022/10/19 10:44:17;;;;;;;2.27;1.42;;;;;;;13.95;63.77;100061.36;1689265;85;21407;-69
2022/10/19 10:46:52;;;;;;;6.08;1.75;;;;;;;13.96;63.64;100067.70;1689481;85;21551;-69
2022/10/19 10:49:37;;;;;;;5.40;2.05;;;;;;;13.95;63.72;100062.73;1689397;85;21100;-70
2022/10/19 10:52:10;;;;;;;2.92;1.40;;;;;;;14.01;63.34;100067.86;1689339;85;21051;-71
2022/10/19 10:55:03;;;;;;;2.62;1.35;;;;;;;14.05;62.35;100065.49;1689421;85;21040;-69
2022/10/19 10:57:39;;;;;;;5.55;1.90;;;;;;;14.04;62.43;100066.03;1689518;85;21060;-70
2022/10/19 11:00:14;;;;;;;6.10;1.90;;;;;;;14.07;62.09;100065.57;1672135;85;21119;-69
2022/10/19 11:03:01;;;;;;;2.27;1.35;;;;;;;14.08;62.08;100064.50;1671725;85;21069;-68
2022/10/19 11:05:59;;;;;;;3.98;1.60;;;;;;;14.10;61.71;100058.22;1686014;83;21075;-69
2022/10/19 11:08:55;;;;;;;7.03;1.42;;;;;;;14.11;61.06;100053.02;1689800;85;21127;-69
2022/10/19 11:11:36;;;;;;;3.37;1.40;;;;;;;14.13;60.08;100045.37;1689425;85;21048;-68
2022/10/19 11:14:38;;;;;;;6.25;1.65;;;;;;;14.16;57.64;100048.20;1689456;85;22106;-71
2022/10/19 11:17:13;;;;;;;7.25;1.50;;;;;;;14.16;56.13;100044.91;1689355;85;21095;-69
2022/10/19 11:19:44;;;;;;;2.45;1.30;;;;;;;14.20;55.63;100053.02;1689368;84;21064;-68
2022/10/19 11:22:29;;;;;;;4.03;1.30;;;;;;;14.22;54.86;100032.97;1689698;85;21013;-70
2022/10/19 11:25:27;;;;;;;4.53;1.40;;;;;;;14.25;54.46;100030.28;1689579;85;21088;-68
2022/10/19 11:28:24;;;;;;;2.70;1.60;;;;;;;14.24;54.25;100029.98;1691248;84;21092;-69
2022/10/19 11:31:09;;;;;;;6.15;1.77;;;;;;;14.25;54.34;100022.86;1689833;85;21060;-69
2022/10/19 11:34:02;;;;;;;4.40;2.05;;;;;;;14.27;53.94;100014.36;1681827;84;21009;-70
2022/10/19 11:36:58;;;;;;;3.87;1.30;;;;;;;14.28;53.67;100021.55;1692333;85;21091;-69
2022/10/19 11:39:53;;;;;;;5.33;2.10;;;;;;;14.26;53.85;100003.88;1692506;85;21048;-69
2022/10/19 11:42:38;;;;;;;3.92;1.82;;;;;;;14.28;53.84;100010.00;1692259;85;21472;-69
2022/10/19 11:45:15;;;;;;;3.98;1.60;;;;;;;14.26;53.89;99996.98;1692248;85;21222;-71
2022/10/19 11:47:58;;;;;;;5.67;1.75;;;;;;;14.27;53.94;99995.91;1692243;85;21072;-69
2022/10/19 11:50:35;;;;;;;6.85;1.40;;;;;;;14.27;54.01;99984.89;1692353;85;21079;-68
2022/10/19 11:53:29;;;;;;;3.52;1.42;;;;;;;14.31;54.03;99983.08;1692458;85;21036;-67
2022/10/19 11:56:40;;;;;;;3.58;1.10;;;;;;;14.32;54.00;99975.11;1692093;85;21036;-68